Terminal Aerodrome Forecast
Issued by NWS

Home | Current Version | Previous Version | Graphics & Text | Print | Product List | Glossary On
Versions: 1 2 3 4 5 6 7 8 9 10 11 12 13 14 15 16 17 18 19 20
000
FTUS43 KBIS 231700
TAFMOT
TAF
KMOT 231720Z 2318/2418 33014KT P6SM OVC012
     FM240100 29010KT P6SM OVC020
     FM240500 25006KT P6SM OVC020
     FM241000 20005KT P6SM SCT020 SCT080=

USA.gov is the U.S. government's official web portal to all federal, state and local government web resources and services.